Vail, CO (81657)

10:03 AM MDT on September 30, 2014 (GMT -0600)
Willow Creek Highlands Subdivision | Change Station
CLOSE
Current Station
Personal Weather Station
Location: Silverthorne, CO
Elevation: 8963 ft
Nearby Weather Stations

Elev 8963 ft 39.65 °N, 106.10 °W | Updated 4 minutes ago

Overcast
Overcast
37.2 °F
Feels Like 37 °F
N
2.2
Wind Variable Wind from WNW

Today
High -- | Low -- °F
--% Chance of Precip.
Yesterday
High -- | Low -- °F
Precip. -- in
7:00 AM 6:49 PM
Waxing Crescent, 38% visible
Pressure 29.86 in
Visibility 10.0 miles
Clouds Overcast 4600 ft
Windchill 37 °F
Dew Point 35 °F
Humidity 91%
Rainfall 0.05 in
Snow Depth 0 in , 0 in , 0 in
UV 1 out of 12
Pollen 3.50 out of 12
Air Quality Not available.
Flu Activity Not available.
METAR KLXV 301553Z AUTO 36011G16KT 10SM OVC046 02/M04 A3010 RMK AO2 SLP110 T00221039

More Conditions Fewer Conditions

Pressure 29.86 in
Visibility 10.0 miles
Clouds Overcast 4600 ft
Windchill 37 °F
Dew Point 35 °F
Humidity 91%
Rainfall 0.05 in
Snow Depth 0 in , 0 in , 0 in
UV 1 out of 12
Pollen 3.50 out of 12
Air Quality Not available.
Flu Activity Not available.
METAR KLXV 301553Z AUTO 36011G16KT 10SM OVC046 02/M04 A3010 RMK AO2 SLP110 T00221039

More Conditions Fewer Conditions

10-Day Weather Forecast

Almanac

Astronomy

Sep. 30, 2014 Rise Set
Actual Time 7:00 AM MDT 6:49 PM MDT
Civil Twilight 6:33 AM MDT 7:16 PM MDT
Nautical Twilight 6:02 AM MDT 7:47 PM MDT
Astronomical Twilight 5:31 AM MDT 8:18 PM MDT
Moon 1:10 PM MDT 11:23 PM MDT
Length of Visible Light 12h 42m
Length of Day
11h 48m
Tomorrow will be 2m 35s shorter.
Waxing Crescent, 38% of the Moon is Illuminated
Today
Waxing Crescent
Oct 1
First Quarter
Oct 8
Full
Oct 15
Last Quarter
Oct 23
New

Today's Extremes

State Highs State Lows

Community

WunderPhotos

Upload Photos

1,757,675 photos uploaded!

Nearby

Snow Depth

Station Depth Elevation
Ripple Creek 0 in 10340 ft
Cascade 0 in 8880 ft
Middle Fork Camp 0 in 9000 ft
Ute Creek 0 in 10650 ft
Lake Irene 5 in 10700 ft

Earthquake Activity

City Distance Mag. Time & Date
No recent earthquake activity has been reported nearby.
Minimum magnitude displayed is 2.5.

Coastal Water Temperatures

Place Temperature
No Stations Reporting

Nearby Weather Stations